Decoded Metar for KHEY ( in _UNIDENTIFIED) (IATA:N/A) | Meteo·Mobile Aviation Weather
aviador You're here:

KHEY Decoded Metar

in _UNIDENTIFIED
Report Time2018-10-22 13:30:00
UTC Time2018-10-22 13:52:40
Flight Rules vfr VFR
Wind090° at 06 kt
W.Decomp.*RWY 17: 1.3 kt HW 5.8 kt LCW
W.Rank090° ranks 6
Current wind is above 090° avg. (5.7)
Visibility9999 m
Phenomena:N/A
Clouds:Broken 034 Hf
Expected CloudBase > 2,400 ft AGL from Temp-Dew spread
Ceiling3,400 ft
Temp11°C (ISA -3)
Dew Point05°C (67% RH)
AAT7.7°C
QNH1025 hPa
Density Alt-367 ft
Elevation318 ft
Report Wrong Elevation
Raw Report
KHEY 221330Z AUTO 09006KT 8SM BKN034 11/05 A3026 RMK AO2
SLP249=

Extra information for KHEY:More info

Metar Taf Metar & Taf Last 4 Metars F.Rules Stats Wind Profile Meteogram Temp Stats Metar ALERT Operation Metar Decoded Social comments